Latest Coastal Weather Observations for Eucla

IDW60701

Issued at 7:11 pm WST Friday 6 May 2016 (issued every 10 minutes, with the page automatically refreshed every 10 minutes)

About coastal observations | Map of coastal stations | Coastal observations for WA | Marine services | Other Formats
Station Details ID: 011003 Name: EUCLA Lat: -31.68 Lon: 128.90 Height: 93.1 m
Data from the previous 72 hours. | See also: Recent months at Eucla
Date/Time
WST
Temp

°C
Wind Pressure Rain
since 9am
mm
Weather Cloud Vis
km
Sea
Height
m
Swell
Dir
 
Speed
knots
Gust
knots
hPa Trend Height
m
Period
s
Dir
06/07:00pm 17.1 NNE 9 12 1008.7 - 6.6 - - - - - - -
06/06:30pm 17.3 N 6 8 1009.2 - 5.8 - - - - - - -
06/06:00pm 17.3 N 6 9 1009.6 - 5.2 Rain - - - - - -
06/05:30pm 17.3 N 7 9 1009.5 - 4.8 - - - - - - -
06/05:00pm 17.5 NNW 9 14 1009.8 - 3.2 - - - - - - -
06/04:30pm 19.0 CALM 0 0 1009.8 - 0.0 - - - - - - -
06/04:00pm 19.1 E 7 9 1008.9 - 0.0 - - - - - - -
06/03:30pm 19.3 E 9 13 1009.0 - 0.0 - - - - - - -
06/03:00pm 19.7 ESE 7 12 1009.3 - 0.0 Haze Mostly cloudy 15 - - - -
06/02:30pm 20.2 ESE 7 10 1009.3 - 0.0 - - - - - - -
06/02:00pm 21.3 ENE 6 10 1009.5 - 0.0 - - - - - - -
06/01:30pm 22.0 NE 9 14 1009.6 - 0.0 - - - - - - -
06/01:00pm 23.7 NE 10 17 1009.7 - 0.0 - - - - - - -
06/12:30pm 22.7 NNE 10 15 1010.6 - 0.0 - - - - - - -
06/12:00pm 20.5 E 8 13 1011.0 - 0.0 - - - - - - -
06/11:30am 21.1 ENE 8 13 1011.8 - 0.0 - - - - - - -
06/11:00am 21.4 NNE 9 15 1012.7 - 0.0 - - - - - - -
06/10:30am 21.5 NNE 9 15 1013.1 - 0.0 - - - - - - -
06/10:00am 21.0 NNE 9 14 1013.5 - 0.0 - - - - - - -
06/09:30am 21.4 NE 8 13 1013.9 - 0.0 - - - - - - -
06/09:00am 20.5 NE 9 14 1014.0 - 0.0 Haze Partly cloudy 25 - - - -
06/08:30am 19.7 NE 9 14 1014.6 - 0.0 - - - - - - -
06/08:00am 17.5 NE 8 12 1014.5 - 0.0 - - - - - - -
06/07:30am 15.5 NE 6 9 1014.5 - 0.0 - - - - - - -
06/07:00am 14.0 NE 5 7 1014.3 - 0.0 - - - - - - -
06/06:30am 12.8 NNE 5 6 1014.0 - 0.0 - - - - - - -
06/06:00am 12.5 NNE 6 7 1013.7 - 0.0 - - - - - - -
06/05:30am 12.9 NE 5 6 1013.7 - 0.0 - - - - - - -
06/05:00am 13.5 ENE 5 7 1013.7 - 0.0 - - - - - - -
06/04:30am 14.3 E 6 8 1013.6 - 0.0 - - - - - - -
06/04:00am 14.6 ENE 5 6 1013.8 - 0.0 - - - - - - -
06/03:30am 14.9 E 4 5 1014.1 - 0.0 - - - - - - -
06/03:00am 15.5 E 5 6 1014.1 - 0.0 - - - - - - -
06/02:30am 16.4 ESE 5 6 1013.9 - 0.0 - - - - - - -
06/02:00am 16.7 SE 6 8 1014.0 - 0.0 - - - - - - -
06/01:30am 16.7 SE 5 8 1014.2 - 0.0 - - - - - - -
06/01:00am 15.3 SE 4 5 1014.3 - 0.0 - - - - - - -
06/12:30am 13.2 S 3 4 1014.4 - 0.0 - - - - - - -
06/12:00am 15.3 SSE 4 5 1014.6 - 0.0 - - - - - - -
 
Date/Time
WST
Temp

°C
Wind Pressure Rain
since 9am
mm
Weather Cloud Vis
km
Sea
Height
m
Swell
Dir
 
Speed
knots
Gust
knots
hPa Trend Height
m
Period
s
Dir
05/11:30pm 15.5 SSE 3 4 1014.6 - 0.0 - - - - - - -
05/11:00pm 15.3 SSE 3 4 1014.7 - 0.0 - - - - - - -
05/10:30pm 15.7 S 5 6 1014.6 - 0.0 - - - - - - -
05/10:00pm 15.9 S 5 6 1014.6 - 0.0 - - - - - - -
05/09:30pm 15.8 S 5 7 1014.6 - 0.0 - - - - - - -
05/09:00pm 16.0 S 6 7 1014.6 - 0.0 - - - - - - -
05/08:30pm 16.2 S 6 7 1014.5 - 0.0 - - - - - - -
05/08:00pm 16.6 S 7 9 1014.5 - 0.0 - - - - - - -
05/07:30pm 16.4 S 6 8 1014.2 - 0.0 - - - - - - -
05/07:00pm 16.8 S 6 8 1014.0 - 0.0 - - - - - - -
05/06:30pm 17.1 S 7 9 1013.5 - 0.0 - - - - - - -
05/06:00pm 17.3 S 7 9 1013.3 - 0.0 - - - - - - -
05/05:30pm 17.3 S 6 9 1012.9 - 0.0 - - - - - - -
05/05:00pm 17.9 SSW 7 9 1012.4 - 0.0 - - - - - - -
05/04:30pm 18.7 SSW 8 14 1012.1 - 0.0 - - - - - - -
05/04:00pm 19.8 SSW 10 15 1012.0 - 0.0 - - - - - - -
05/03:30pm 19.9 SSW 9 16 1011.7 - 0.0 - - - - - - -
05/03:00pm 20.5 SSW 10 16 1011.6 - 0.0 Fine Mostly clear 40 - - - -
05/02:30pm 20.9 SSW 11 16 1011.4 - 0.0 - - - - - - -
05/02:00pm 21.4 SSW 11 17 1011.4 - 0.0 - - - - - - -
05/01:30pm 21.5 SSW 13 18 1011.2 - 0.0 - - - - - - -
05/01:00pm 22.0 SSW 13 20 1011.2 - 0.0 - - - - - - -
05/12:30pm 22.7 SSW 12 18 1011.3 - 0.0 - - - - - - -
05/12:00pm 22.1 SW 13 19 1011.4 - 0.0 - - - - - - -
05/11:30am 22.9 SSW 12 17 1011.3 - 0.0 - - - - - - -
05/11:00am 25.5 SSW 11 18 1011.4 - 0.0 - - - - - - -
05/10:30am 29.2 W 10 15 1011.4 - 0.0 - - - - - - -
05/10:00am 28.3 NW 9 14 1011.6 - 0.0 - - - - - - -
05/09:30am 26.4 NNW 11 16 1011.9 - 0.0 - - - - - - -
05/09:00am 25.1 NW 10 17 1012.3 - 0.0 Fine Mostly clear 40 - - - -
05/08:30am 23.7 NW 12 18 1012.3 - 0.0 - - - - - - -
05/08:00am 21.2 NNW 11 15 1012.0 - 0.0 - - - - - - -
05/07:30am 19.0 NNW 12 16 1012.0 - 0.0 - - - - - - -
05/07:00am 17.3 NNW 13 18 1011.8 - 0.0 - - - - - - -
05/06:30am 15.7 N 13 17 1011.6 - 0.0 - - - - - - -
05/06:00am 15.0 N 11 17 1011.4 - 0.0 - - - - - - -
05/05:30am 13.9 N 11 15 1011.2 - 0.0 - - - - - - -
05/05:00am 13.8 N 11 14 1011.0 - 0.0 - - - - - - -
05/04:30am 13.6 N 11 13 1011.0 - 0.0 - - - - - - -
05/04:00am 13.6 N 10 14 1010.8 - 0.0 - - - - - - -
05/03:30am 14.3 N 10 14 1010.8 - 0.0 - - - - - - -
05/03:00am 14.0 N 10 14 1011.0 - 0.0 - - - - - - -
05/02:30am 14.5 N 9 12 1011.1 - 0.0 - - - - - - -
05/02:00am 15.0 N 10 15 1011.2 - 0.0 - - - - - - -
05/01:30am 14.0 N 9 11 1011.4 - 0.0 - - - - - - -
05/01:00am 14.6 N 9 13 1011.6 - 0.0 - - - - - - -
05/12:30am 14.3 N 9 11 1011.9 - 0.0 - - - - - - -
05/12:00am 14.6 N 8 11 1012.1 - 0.0 - - - - - - -
 
Date/Time
WST
Temp

°C
Wind Pressure Rain
since 9am
mm
Weather Cloud Vis
km
Sea
Height
m
Swell
Dir
 
Speed
knots
Gust
knots
hPa Trend Height
m
Period
s
Dir
04/11:30pm 14.0 N 8 10 1012.4 - 0.0 - - - - - - -
04/11:00pm 14.0 N 8 10 1012.5 - 0.0 - - - - - - -
04/10:30pm 13.7 N 8 9 1012.7 - 0.0 - - - - - - -
04/10:00pm 12.4 N 7 8 1013.0 - 0.0 - - - - - - -
04/09:30pm 12.8 N 7 7 1013.4 - 0.0 - - - - - - -
04/09:00pm 13.6 N 7 7 1013.6 - 0.0 - - - - - - -
04/08:30pm 14.6 N 7 8 1013.8 - 0.0 - - - - - - -
04/08:00pm 14.6 NNE 6 7 1014.1 - 0.0 - - - - - - -
04/07:30pm 15.2 NNE 7 7 1014.1 - 0.0 - - - - - - -
04/07:00pm 15.7 NE 6 6 1014.2 - 0.0 - - - - - - -
04/06:30pm 16.6 NE 6 7 1014.0 - 0.0 - - - - - - -
04/06:00pm 17.4 NE 5 7 1013.9 - 0.0 - - - - - - -
04/05:30pm 17.3 ENE 5 6 1013.5 - 0.0 - - - - - - -
04/05:00pm 18.4 E 4 6 1013.4 - 0.0 - - - - - - -
04/04:30pm 19.6 SE 5 8 1013.3 - 0.0 - - - - - - -
04/04:00pm 20.9 W 5 8 1013.4 - 0.0 - - - - - - -
04/03:30pm 25.1 NW 9 13 1013.6 - 0.0 - - - - - - -
04/03:00pm 25.3 NW 8 14 1013.6 - 0.0 Haze Clear 25 - - - -
04/02:30pm 25.9 NW 10 15 1013.7 - 0.0 - - - - - - -
04/02:00pm 25.6 NW 8 12 1013.9 - 0.0 - - - - - - -
04/01:30pm 25.1 WNW 9 15 1014.2 - 0.0 - - - - - - -
04/01:00pm 25.2 NW 8 14 1014.5 - 0.0 - - - - - - -
04/12:30pm 24.4 WNW 8 17 1014.9 - 0.0 - - - - - - -
04/12:00pm 23.6 NW 10 17 1015.7 - 0.0 - - - - - - -
04/11:30am 22.9 NW 10 16 1016.3 - 0.0 - - - - - - -
04/11:00am 22.6 NNW 12 17 1016.9 - 0.0 - - - - - - -
04/10:30am 21.4 N 13 17 1017.3 - 0.0 - - - - - - -
04/10:00am 20.2 NNW 12 17 1017.8 - 0.0 - - - - - - -
04/09:30am 19.4 NNW 12 16 1018.3 - 0.0 - - - - - - -
04/09:00am 18.2 NNW 10 15 1018.8 - 0.0 Haze Clear 25 - - - -
04/08:30am 16.5 NNW 9 12 1019.0 - 0.0 - - - - - - -
04/08:00am 14.1 N 8 11 1019.1 - 0.0 - - - - - - -
04/07:30am 12.2 NNW 7 11 1019.1 - 0.0 - - - - - - -
04/07:00am 9.9 NNW 7 9 1018.9 - 0.0 - - - - - - -
04/06:30am 8.5 NNW 7 10 1018.6 - 0.0 - - - - - - -
04/06:00am 8.4 NNW 7 9 1018.3 - 0.0 - - - - - - -
04/05:30am 9.2 NNW 6 7 1018.2 - 0.0 - - - - - - -
04/05:00am 9.2 NNW 7 8 1018.1 - 0.0 - - - - - - -
04/04:30am 9.0 NNW 6 8 1017.8 - 0.0 - - - - - - -
04/04:00am 9.8 NW 5 7 1017.6 - 0.0 - - - - - - -
04/03:30am 9.2 NNW 5 7 1017.7 - 0.0 - - - - - - -
04/03:00am 9.6 NNW 5 6 1017.5 - 0.0 - - - - - - -
04/02:30am 9.3 NNW 5 6 1017.5 - 0.0 - - - - - - -
04/02:00am 9.9 NNW 5 6 1017.7 - 0.0 - - - - - - -
04/01:30am 11.1 WNW 4 5 1017.7 - 0.0 - - - - - - -
04/01:00am 12.5 W 5 6 1017.8 - 0.0 - - - - - - -
04/12:30am 11.8 WNW 5 5 1017.9 - 0.0 - - - - - - -
04/12:00am 13.2 W 5 6 1017.9 - 0.0 - - - - - - -
 
Date/Time
WST
Temp

°C
Wind Pressure Rain
since 9am
mm
Weather Cloud Vis
km
Sea
Height
m
Swell
Dir
 
Speed
knots
Gust
knots
hPa Trend Height
m
Period
s
Dir
03/11:30pm 13.2 W 5 6 1017.9 - 0.0 - - - - - - -
03/11:00pm 13.0 W 5 5 1018.1 - 0.0 - - - - - - -
03/10:30pm 13.2 W 5 5 1018.3 - 0.0 - - - - - - -
03/10:00pm 14.3 WSW 4 6 1018.7 - 0.0 - - - - - - -
03/09:30pm 14.9 WSW 5 6 1019.0 - 0.0 - - - - - - -
03/09:00pm 15.2 WSW 5 5 1019.0 - 0.0 - - - - - - -
03/08:30pm 15.2 WSW 6 7 1019.2 - 0.0 - - - - - - -
03/08:00pm 15.5 WSW 6 8 1019.3 - 0.0 - - - - - - -
03/07:30pm 15.7 WSW 6 8 1019.2 - 0.0 - - - - - - -

Other Formats:

Comma delimited format used in spreadsheet applications
http://www.bom.gov.au/fwo/IDW60701/IDW60701.94647.axf

JavaScript Object Notation format (JSON) in row-major order
http://www.bom.gov.au/fwo/IDW60701/IDW60701.94647.json